Time;durP1;ratioP1;P1;durP2;ratioP2;P2;SDS_P1;SDS_P2;PMS_P1;PMS_P2;Temp;Humidity;BMP_temperature;BMP_pressure;BME280_temperature;BME280_humidity;BME280_pressure;Samples;Min_cycle;Max_cycle;Signal;HPM_P1;HPM_P2
2024/02/06 00:01:57;;;;;;;17.00;9.80;;;;;;;9.79;100.00;99590.20;110563;1262;22003;-79
2024/02/06 00:04:43;;;;;;;20.70;8.80;;;;;;;9.80;100.00;99586.29;110794;1257;21938;-79
2024/02/06 00:07:16;;;;;;;19.90;9.40;;;;;;;9.82;100.00;99589.20;110873;1257;22878;-79
2024/02/06 00:10:18;;;;;;;19.60;9.90;;;;;;;9.79;100.00;99585.84;110890;1257;22890;-81
2024/02/06 00:12:57;;;;;;;19.70;8.80;;;;;;;9.67;100.00;99573.54;110761;1257;22307;-79
2024/02/06 00:15:39;;;;;;;22.90;10.00;;;;;;;9.73;100.00;99589.93;111255;1257;22000;-80
2024/02/06 00:18:22;;;;;;;21.20;10.60;;;;;;;9.73;100.00;99589.21;111017;1257;21973;-79
2024/02/06 00:20:55;;;;;;;18.00;8.60;;;;;;;9.65;100.00;99571.35;110875;1257;24346;-78
2024/02/06 00:23:34;;;;;;;17.00;8.70;;;;;;;9.77;100.00;99585.59;111116;1257;21936;-78
2024/02/06 00:26:25;;;;;;;16.30;8.40;;;;;;;9.80;100.00;99581.98;111193;1257;22221;-79
2024/02/06 00:29:10;;;;;;;13.50;7.20;;;;;;;9.81;100.00;99578.30;111059;1257;21996;-79
2024/02/06 00:32:21;;;;;;;19.90;9.00;;;;;;;9.81;100.00;99572.56;110529;1248;21974;-78
2024/02/06 00:35:02;;;;;;;25.90;10.00;;;;;;;9.72;100.00;99559.95;110946;1258;23047;-78
2024/02/06 00:37:35;;;;;;;22.90;10.20;;;;;;;9.79;100.00;99571.77;110692;1257;23065;-79
2024/02/06 00:40:30;;;;;;;21.30;10.30;;;;;;;9.78;100.00;99574.41;110946;1258;21978;-79
2024/02/06 00:43:10;;;;;;;29.70;11.20;;;;;;;9.76;100.00;99573.30;110567;1262;21969;-82
2024/02/06 00:46:16;;;;;;;24.50;10.30;;;;;;;9.70;100.00;99564.20;110716;1263;22200;-80
2024/02/06 00:49:04;;;;;;;28.40;10.70;;;;;;;9.71;100.00;99567.77;110707;1262;22276;-82
2024/02/06 00:51:43;;;;;;;17.50;9.70;;;;;;;9.69;100.00;99568.93;110446;1262;23711;-80
2024/02/06 00:54:44;;;;;;;25.00;9.90;;;;;;;9.66;100.00;99571.54;110619;1256;23147;-78
2024/02/06 00:57:44;;;;;;;19.50;9.80;;;;;;;9.62;100.00;99569.27;110752;1262;21979;-78
2024/02/06 01:00:35;;;;;;;19.70;10.20;;;;;;;9.59;100.00;99568.16;110494;1262;21962;-79
2024/02/06 01:03:15;;;;;;;18.90;9.30;;;;;;;9.56;100.00;99563.30;109985;1266;23036;-79
2024/02/06 01:06:09;;;;;;;21.50;10.00;;;;;;;9.46;100.00;99550.88;109869;1270;21998;-78
2024/02/06 01:09:08;;;;;;;27.60;10.00;;;;;;;9.52;100.00;99566.77;109711;1269;21977;-80
2024/02/06 01:11:54;;;;;;;21.00;10.10;;;;;;;9.49;100.00;99560.45;109750;1270;23031;-80
2024/02/06 01:14:55;;;;;;;19.90;10.10;;;;;;;9.47;100.00;99555.90;109789;1269;23713;-79
2024/02/06 01:17:38;;;;;;;23.80;10.80;;;;;;;9.46;100.00;99555.91;109442;1272;22210;-80
2024/02/06 01:20:16;;;;;;;21.90;10.30;;;;;;;9.45;100.00;99562.58;109726;1267;23666;-80
2024/02/06 01:23:29;;;;;;;19.80;10.60;;;;;;;9.41;100.00;99564.66;110205;1267;23565;-79
2024/02/06 01:26:34;;;;;;;21.80;10.70;;;;;;;9.39;100.00;99564.42;110051;1267;24118;-81
2024/02/06 01:29:17;;;;;;;27.00;11.80;;;;;;;9.38;100.00;99563.21;110210;1267;21983;-79
2024/02/06 01:31:53;;;;;;;26.40;11.30;;;;;;;9.40;100.00;99559.30;109909;1270;22116;-79
2024/02/06 01:34:55;;;;;;;20.70;10.20;;;;;;;9.40;100.00;99559.67;109894;1266;23114;-80
2024/02/06 01:37:36;;;;;;;20.80;10.10;;;;;;;9.34;100.00;99546.75;109419;1270;23969;-79
2024/02/06 01:40:59;;;;;;;19.40;9.70;;;;;;;9.35;100.00;99544.25;109472;1271;23480;-78
2024/02/06 01:43:51;;;;;;;22.70;11.30;;;;;;;9.37;100.00;99542.45;109648;1270;23652;-78
2024/02/06 01:46:42;;;;;;;20.20;9.70;;;;;;;9.44;100.00;99546.29;109537;1270;24469;-78
2024/02/06 01:49:50;;;;;;;24.30;10.60;;;;;;;9.44;100.00;99549.27;109492;1267;23020;-80
2024/02/06 01:52:48;;;;;;;19.20;9.70;;;;;;;9.32;100.00;99535.73;109838;1268;23621;-78
2024/02/06 01:55:30;;;;;;;20.90;10.40;;;;;;;9.37;100.00;99545.75;109797;1268;21979;-78
2024/02/06 01:58:10;;;;;;;19.70;9.80;;;;;;;9.26;100.00;99527.83;109770;1258;23042;-80
2024/02/06 02:01:13;;;;;;;20.70;9.30;;;;;;;9.33;100.00;99542.27;109946;1268;23815;-79
2024/02/06 02:03:55;;;;;;;21.60;10.40;;;;;;;9.31;100.00;99544.25;109400;1272;22211;-79
2024/02/06 02:06:35;;;;;;;24.00;10.70;;;;;;;9.32;100.00;99545.44;109436;1272;21989;-77
2024/02/06 02:09:18;;;;;;;20.20;9.20;;;;;;;9.30;100.00;99546.92;109521;1272;21980;-79
2024/02/06 02:12:05;;;;;;;17.70;10.20;;;;;;;9.31;100.00;99543.92;109403;1273;22141;-79
2024/02/06 02:14:55;;;;;;;19.70;9.10;;;;;;;9.32;100.00;99548.75;109532;1267;23699;-78
2024/02/06 02:17:34;;;;;;;17.80;8.80;;;;;;;9.32;100.00;99543.17;109897;1264;22321;-78
2024/02/06 02:20:14;;;;;;;20.10;10.00;;;;;;;9.31;100.00;99544.11;109693;1269;24463;-79
2024/02/06 02:22:44;;;;;;;21.60;9.80;;;;;;;9.29;100.00;99545.42;110037;1266;21964;-78
2024/02/06 02:25:29;;;;;;;24.90;10.40;;;;;;;9.28;100.00;99544.94;109945;1267;22043;-78
2024/02/06 02:28:12;;;;;;;17.10;9.40;;;;;;;9.28;100.00;99544.05;109099;1272;23874;-78
2024/02/06 02:31:15;;;;;;;22.00;9.90;;;;;;;9.25;100.00;99545.42;109308;1271;22004;-79
2024/02/06 02:33:56;;;;;;;16.40;8.80;;;;;;;9.14;100.00;99532.34;109105;1277;23045;-78
2024/02/06 02:36:48;;;;;;;24.60;10.10;;;;;;;9.23;100.00;99549.85;109063;1277;22116;-80
2024/02/06 02:39:33;;;;;;;22.50;10.00;;;;;;;9.24;100.00;99555.01;109114;1272;21980;-78
2024/02/06 02:46:45;;;;;;;16.90;9.70;;;;;;;9.14;100.00;99543.83;108627;1281;24208;-81
2024/02/06 02:49:38;;;;;;;17.10;9.10;;;;;;;9.28;100.00;99551.33;108750;1281;22331;-79
2024/02/06 02:52:35;;;;;;;20.50;10.00;;;;;;;9.23;100.00;99544.27;108852;1275;23068;-82
2024/02/06 02:55:36;;;;;;;;;;;;;;;;;;;;;
2024/02/06 02:58:36;;;;;;;21.50;10.30;;;;;;;9.24;100.00;99553.97;109089;1275;21985;-80
2024/02/06 03:01:21;;;;;;;17.60;9.50;;;;;;;9.21;100.00;99547.67;108880;1278;23608;-81
2024/02/06 03:04:31;;;;;;;17.20;9.30;;;;;;;9.20;100.00;99538.88;109208;1274;22462;-81
2024/02/06 03:07:28;;;;;;;19.40;8.20;;;;;;;9.11;100.00;99523.47;109254;1274;22338;-80
2024/02/06 03:10:53;;;;;;;25.80;9.70;;;;;;;9.18;100.00;99541.54;109336;1274;21996;-82
2024/02/06 03:13:47;;;;;;;18.00;9.50;;;;;;;9.19;100.00;99539.75;109444;1274;23605;-80
2024/02/06 03:16:44;;;;;;;18.90;10.60;;;;;;;9.21;100.00;99537.27;109690;1265;22339;-80
2024/02/06 03:19:42;;;;;;;18.90;8.90;;;;;;;9.18;100.00;99533.40;109716;1270;21972;-79
2024/02/06 03:22:30;;;;;;;17.70;10.20;;;;;;;9.17;100.00;99535.69;109547;1272;23017;-80
2024/02/06 03:25:12;;;;;;;16.10;10.20;;;;;;;9.14;100.00;99534.45;109604;1272;22900;-79
2024/02/06 03:28:32;;;;;;;14.00;9.10;;;;;;;9.12;100.00;99533.15;109699;1272;22136;-80
2024/02/06 03:31:24;;;;;;;18.20;9.90;;;;;;;9.10;100.00;99526.84;109791;1272;23071;-79
2024/02/06 03:34:14;;;;;;;21.80;9.80;;;;;;;9.09;100.00;99523.37;109527;1272;23043;-79
2024/02/06 03:36:56;;;;;;;18.80;10.00;;;;;;;9.09;100.00;99526.33;109314;1271;22064;-80
2024/02/06 03:39:48;;;;;;;20.90;9.50;;;;;;;9.10;100.00;99530.81;109454;1270;22078;-79
2024/02/06 03:42:46;;;;;;;14.90;9.00;;;;;;;9.12;100.00;99526.38;109536;1268;21820;-81
2024/02/06 03:46:07;;;;;;;16.50;9.10;;;;;;;9.00;100.00;99509.03;109987;1269;22006;-78
2024/02/06 03:48:42;;;;;;;17.90;9.30;;;;;;;8.91;100.00;99497.64;109740;1271;22477;-80
2024/02/06 03:51:34;;;;;;;17.40;10.00;;;;;;;9.01;100.00;99514.73;109637;1271;22002;-81
2024/02/06 03:54:54;;;;;;;19.70;10.30;;;;;;;8.96;100.00;99505.06;109684;1265;21975;-78
2024/02/06 03:57:38;;;;;;;19.10;9.00;;;;;;;9.01;100.00;99520.45;110439;1265;21995;-80
2024/02/06 04:00:49;;;;;;;;;;;;;;;;;;;;;
2024/02/06 04:03:25;;;;;;;21.00;9.10;;;;;;;9.01;100.00;99519.60;109788;1271;21990;-79
2024/02/06 04:06:00;;;;;;;15.20;8.00;;;;;;;9.03;100.00;99522.61;109809;1271;22000;-81
2024/02/06 04:08:57;;;;;;;50.20;38.50;;;;;;;9.02;100.00;99517.63;109481;1271;22008;-80
2024/02/06 04:11:30;;;;;;;14.60;10.00;;;;;;;8.97;100.00;99510.90;109909;1267;22384;-80
2024/02/06 04:14:05;;;;;;;15.20;8.90;;;;;;;9.05;100.00;99520.11;109961;1267;23623;-80
2024/02/06 04:16:54;;;;;;;15.20;8.40;;;;;;;9.03;100.00;99524.19;110193;1267;24667;-78
2024/02/06 04:19:39;;;;;;;25.50;17.30;;;;;;;9.03;100.00;99516.22;110049;1267;23758;-78
2024/02/06 04:22:30;;;;;;;15.00;9.70;;;;;;;9.03;100.00;99517.58;110015;1267;21979;-78
2024/02/06 04:25:18;;;;;;;15.50;7.40;;;;;;;9.05;100.00;99516.48;109483;1269;22776;-80
2024/02/06 04:28:04;;;;;;;11.90;7.10;;;;;;;9.06;100.00;99516.09;109776;1269;22219;-77
2024/02/06 04:31:14;;;;;;;13.00;7.90;;;;;;;9.05;100.00;99514.38;109543;1269;23058;-77
2024/02/06 04:34:11;;;;;;;13.90;7.30;;;;;;;9.05;100.00;99512.81;109725;1269;21977;-78
2024/02/06 04:37:04;;;;;;;14.50;7.20;;;;;;;9.04;100.00;99513.73;109750;1264;21965;-79
2024/02/06 04:39:42;;;;;;;10.80;6.50;;;;;;;9.05;100.00;99511.77;110319;1264;21984;-79
2024/02/06 04:42:49;;;;;;;11.80;6.10;;;;;;;9.06;100.00;99510.70;110369;1264;23727;-80
2024/02/06 04:46:54;;;;;;;13.00;6.30;;;;;;;9.04;100.00;99506.95;110465;1253;21968;-78
2024/02/06 04:53:57;;;;;;;13.50;6.80;;;;;;;8.97;100.00;99497.39;109261;1276;23139;-78
2024/02/06 04:57:02;;;;;;;12.10;8.00;;;;;;;8.90;100.00;99487.95;109013;1275;21985;-81
2024/02/06 04:59:57;;;;;;;11.70;6.20;;;;;;;9.01;100.00;99500.16;108673;1282;21996;-79
2024/02/06 05:04:06;;;;;;;11.30;6.00;;;;;;;9.01;100.00;99499.10;108677;1282;22965;-80
2024/02/06 05:07:09;;;;;;;8.90;5.80;;;;;;;8.96;100.00;99486.50;108167;1290;22927;-80
2024/02/06 05:09:43;;;;;;;10.70;5.70;;;;;;;9.04;100.00;99493.77;108009;1285;23107;-81
2024/02/06 05:13:07;;;;;;;13.10;6.40;;;;;;;9.06;100.00;99488.83;108602;1284;23059;-79
2024/02/06 05:16:18;;;;;;;13.60;7.10;;;;;;;9.01;100.00;99475.35;108651;1283;23113;-79
2024/02/06 05:19:41;;;;;;;16.40;8.00;;;;;;;9.06;100.00;99477.35;108342;1287;23625;-80
2024/02/06 05:22:13;;;;;;;18.10;7.50;;;;;;;9.08;100.00;99480.06;108132;1286;22075;-81
2024/02/06 05:25:43;;;;;;;16.50;6.60;;;;;;;9.07;100.00;99478.52;108413;1284;23714;-79
2024/02/06 05:28:22;;;;;;;10.30;5.80;;;;;;;9.00;100.00;99481.78;108750;1279;23641;-78
2024/02/06 05:31:08;;;;;;;12.90;6.60;;;;;;;9.00;100.00;99486.32;108934;1274;23720;-80
2024/02/06 05:33:46;;;;;;;13.20;6.40;;;;;;;9.01;100.00;99485.07;108798;1277;22003;-79
2024/02/06 05:37:06;;;;;;;8.70;5.30;;;;;;;8.98;100.00;99480.31;108869;1277;22090;-80
2024/02/06 05:40:02;;;;;;;11.40;6.20;;;;;;;8.94;100.00;99483.08;108507;1276;22036;-80
2024/02/06 05:43:10;;;;;;;11.60;5.90;;;;;;;8.90;100.00;99477.56;108923;1279;22003;-78
2024/02/06 05:46:08;;;;;;;14.50;7.00;;;;;;;8.86;100.00;99478.10;108862;1274;22017;-77
2024/02/06 05:49:50;;;;;;;15.00;7.00;;;;;;;9.03;100.00;99479.08;108410;1280;544344;-80
2024/02/06 05:52:49;;;;;;;18.10;8.70;;;;;;;8.98;100.00;99479.45;110514;1267;21976;-79
2024/02/06 05:55:59;;;;;;;8.90;5.70;;;;;;;8.96;100.00;99476.08;111235;1257;23758;-79
2024/02/06 05:59:03;;;;;;;10.00;6.10;;;;;;;8.91;100.00;99480.84;110900;1260;21960;-79
2024/02/06 06:01:46;;;;;;;11.30;6.10;;;;;;;8.89;100.00;99489.73;110334;1266;22383;-80
2024/02/06 06:04:36;;;;;;;18.60;7.10;;;;;;;8.83;100.00;99483.23;106467;1264;21976;-81
2024/02/06 06:07:49;;;;;;;12.60;5.80;;;;;;;8.84;100.00;99479.02;110743;1263;23029;-80
2024/02/06 06:11:19;;;;;;;15.20;8.00;;;;;;;8.71;100.00;99465.21;110645;1264;21976;-79
2024/02/06 06:14:06;;;;;;;19.20;6.00;;;;;;;8.80;100.00;99481.64;109645;1271;23691;-81
2024/02/06 06:17:05;;;;;;;13.10;5.60;;;;;;;8.79;100.00;99481.54;109680;1271;23660;-80
2024/02/06 06:19:42;;;;;;;11.20;5.90;;;;;;;8.80;100.00;99482.51;109645;1271;22887;-80
2024/02/06 06:22:55;;;;;;;;;;;;;;;8.81;100.00;99483.52;109704;1270;21967;-79
2024/02/06 06:25:36;;;;;;;12.90;7.00;;;;;;;8.73;100.00;99481.06;109747;1267;21957;-81
2024/02/06 06:28:17;;;;;;;12.70;5.60;;;;;;;8.76;100.00;99478.53;110114;1268;21993;-79
2024/02/06 06:31:30;;;;;;;12.80;5.80;;;;;;;8.71;100.00;99466.05;110170;1261;21967;-80
2024/02/06 06:35:31;;;;;;;15.80;6.30;;;;;;;8.76;100.00;99478.38;110564;1262;23705;-79
2024/02/06 06:38:25;;;;;;;10.10;6.70;;;;;;;8.74;100.00;99474.27;110736;1262;21968;-81
2024/02/06 06:41:17;;;;;;;11.20;5.60;;;;;;;8.72;100.00;99469.83;110523;1263;21978;-80
2024/02/06 06:43:49;;;;;;;11.20;7.00;;;;;;;8.75;100.00;99473.16;110527;1259;22432;-79
2024/02/06 06:46:24;;;;;;;9.50;6.10;;;;;;;8.67;100.00;99455.31;110768;1260;21969;-80
2024/02/06 06:49:39;;;;;;;;;;;;;;;;;;;;;
2024/02/06 06:55:38;;;;;;;12.60;6.20;;;;;;;8.82;100.00;99486.43;109819;1270;23615;-81
2024/02/06 06:59:45;;;;;;;;;;;;;;;;;;;;;
2024/02/06 07:02:27;;;;;;;18.50;7.40;;;;;;;8.81;100.00;99492.01;110192;1267;21955;-78
2024/02/06 07:05:34;;;;;;;;;;;;;;;;;;;;;
2024/02/06 07:09:06;;;;;;;13.80;6.20;;;;;;;8.76;100.00;99489.99;109104;1276;21985;-79
2024/02/06 07:12:25;;;;;;;14.20;7.20;;;;;;;8.76;100.00;99492.06;108958;1276;22865;-78
2024/02/06 07:16:21;;;;;;;14.00;6.60;;;;;;;8.75;100.00;99492.94;108882;1276;23097;-78
2024/02/06 07:19:53;;;;;;;;;;;;;;;8.77;100.00;99491.52;109029;1276;21970;-78
2024/02/06 07:24:11;;;;;;;8.50;5.30;;;;;;;8.66;100.00;99493.55;109124;1276;21989;-78
2024/02/06 07:28:10;;;;;;;;;;;;;;;;;;;;;
2024/02/06 07:31:33;;;;;;;11.60;5.10;;;;;;;8.69;100.00;99501.41;108651;1282;22034;-77
2024/02/06 07:38:12;;;;;;;15.70;5.10;;;;;;;8.58;100.00;99484.15;107392;1298;23047;-79
2024/02/06 07:41:15;;;;;;;;;;;;;;;;;;;;;
2024/02/06 07:44:47;;;;;;;12.40;5.60;;;;;;;8.70;100.00;99496.83;107516;1294;22027;-77
2024/02/06 07:47:47;;;;;;;11.00;5.20;;;;;;;8.71;100.00;99496.80;107709;1295;22011;-77
2024/02/06 07:51:32;;;;;;;10.60;5.60;;;;;;;8.72;100.00;99498.48;107944;1291;22055;-78
2024/02/06 07:54:53;;;;;;;;;;;;;;;;;;;;;
2024/02/06 07:58:16;;;;;;;9.90;6.10;;;;;;;8.72;100.00;99498.66;108387;1284;24429;-76
2024/02/06 08:01:44;;;;;;;9.50;5.50;;;;;;;8.74;100.00;99495.29;108253;1284;22180;-78
2024/02/06 08:05:28;;;;;;;10.30;5.40;;;;;;;8.76;100.00;99491.54;108419;1285;22036;-78
2024/02/06 08:08:52;;;;;;;9.10;5.30;;;;;;;8.72;100.00;99492.76;109123;1276;22027;-79
2024/02/06 08:12:28;;;;;;;11.10;6.30;;;;;;;8.65;100.00;99478.50;108984;1275;23780;-77
2024/02/06 08:16:20;;;;;;;;;;;;;;;;;;;;;
2024/02/06 08:19:44;;;;;;;9.60;6.00;;;;;;;8.81;100.00;99501.04;108826;1280;23223;-79
2024/02/06 08:26:43;;;;;;;11.00;6.10;;;;;;;8.88;100.00;99504.35;108450;1286;22003;-77
2024/02/06 08:30:10;;;;;;;11.20;6.80;;;;;;;8.92;100.00;99503.34;108199;1288;22189;-79
2024/02/06 08:33:44;;;;;;;8.50;5.40;;;;;;;8.91;100.00;99500.77;108027;1289;23017;-77
2024/02/06 08:37:07;;;;;;;9.00;5.40;;;;;;;8.91;100.00;99499.39;108075;1289;22222;-78
2024/02/06 08:40:21;;;;;;;10.90;7.00;;;;;;;8.91;100.00;99497.11;108058;1289;23802;-77
2024/02/06 08:54:58;;;;;;;;;;;;;;;;;;;;;
2024/02/06 08:58:47;;;;;;;8.40;5.50;;;;;;;10.70;100.00;99495.16;103051;1277;21979;-80
2024/02/06 09:02:42;;;;;;;11.60;5.50;;;;;;;10.33;100.00;99489.91;109164;1275;22862;-80
2024/02/06 09:07:50;;;;;;;;;;;;;;;;;;;;;
2024/02/06 09:15:01;;;;;;;;;;;;;;;;;;;;;
2024/02/06 09:18:25;;;;;;;;;;;;;;;9.66;100.00;99469.69;107260;1300;21986;-79
2024/02/06 09:21:55;;;;;;;6.00;4.60;;;;;;;9.68;100.00;99479.13;107551;1300;22029;-79
2024/02/06 09:25:08;;;;;;;10.80;5.20;;;;;;;9.71;100.00;99476.95;107453;1297;23028;-80
2024/02/06 09:28:09;;;;;;;;;;;;;;;;;;;;;
2024/02/06 09:31:22;;;;;;;8.00;5.10;;;;;;;9.81;100.00;99474.02;108148;1292;22030;-79
2024/02/06 09:34:21;;;;;;;;;;;;;;;9.85;100.00;99466.71;107936;1292;22001;-77
2024/02/06 09:37:58;;;;;;;18.60;14.30;;;;;;;9.81;100.00;99466.20;108012;1292;22005;-78
2024/02/06 09:42:24;;;;;;;;;;;;;;;;;;;;;
2024/02/06 09:44:59;;;;;;;12.90;6.90;;;;;;;9.81;100.00;99454.06;108634;1272;23144;-79
2024/02/06 09:48:26;;;;;;;12.30;7.40;;;;;;;9.87;100.00;99465.72;109198;1275;22044;-79
2024/02/06 09:51:32;;;;;;;11.10;6.80;;;;;;;9.90;100.00;99463.36;109072;1279;23001;-81
2024/02/06 09:55:33;;;;;;;11.20;5.80;;;;;;;9.92;100.00;99463.08;108353;1287;22006;-79
2024/02/06 09:58:48;;;;;;;11.90;6.90;;;;;;;9.99;100.00;99462.05;108654;1281;23682;-79
2024/02/06 10:03:11;;;;;;;10.10;6.00;;;;;;;10.05;100.00;99466.60;108598;1281;22025;-79
2024/02/06 10:06:25;;;;;;;11.90;5.50;;;;;;;10.13;100.00;99472.08;108586;1276;23065;-79
2024/02/06 10:14:05;;;;;;;18.90;12.50;;;;;;;10.14;100.00;99458.16;107541;1297;22017;-81
2024/02/06 10:18:25;;;;;;;13.20;5.40;;;;;;;10.19;100.00;99457.17;107688;1295;23075;-77
2024/02/06 10:31:10;;;;;;;;;;;;;;;;;;;;;
2024/02/06 10:49:18;;;;;;;;;;;;;;;;;;;;;
2024/02/06 10:53:16;;;;;;;6.60;4.50;;;;;;;11.25;100.00;99428.50;111576;1244;23099;-78
2024/02/06 10:57:45;;;;;;;13.10;6.00;;;;;;;10.89;100.00;99420.71;111077;1257;22868;-78
2024/02/06 11:01:11;;;;;;;;;;;;;;;;;;;;;
2024/02/06 11:05:34;;;;;;;10.50;5.00;;;;;;;10.69;100.00;99416.55;110951;1257;21984;-78
2024/02/06 11:21:41;;;;;;;8.20;4.80;;;;;;;10.84;100.00;99411.04;108769;1278;22008;-79
2024/02/06 11:25:49;;;;;;;;;;;;;;;;;;;;;
2024/02/06 11:29:30;;;;;;;;;;;;;;;;;;;;;
2024/02/06 11:40:41;;;;;;;13.00;6.20;;;;;;;10.67;100.00;99399.63;109140;1275;23059;-79
2024/02/06 11:46:59;;;;;;;;;;;;;;;;;;;;;
2024/02/06 11:54:50;;;;;;;;;;;;;;;10.36;100.00;99398.45;109549;1270;23713;-77
2024/02/06 11:57:59;;;;;;;12.80;6.50;;;;;;;10.21;100.00;99400.59;109116;1271;23720;-78
2024/02/06 12:01:19;;;;;;;8.60;5.30;;;;;;;10.19;100.00;99393.58;110082;1264;22394;-79
2024/02/06 12:05:09;;;;;;;;;;;;;;;;;;;;;
2024/02/06 12:08:03;;;;;;;12.10;4.70;;;;;;;10.23;100.00;99390.05;109400;1271;23063;-77
2024/02/06 12:11:41;;;;;;;11.30;7.80;;;;;;;10.25;100.00;99380.94;109340;1267;22018;-79
2024/02/06 12:14:24;;;;;;;14.20;9.60;;;;;;;10.28;100.00;99373.98;110413;1261;24143;-77
2024/02/06 12:17:30;;;;;;;11.00;5.90;;;;;;;10.34;100.00;99378.73;110656;1256;22286;-79
2024/02/06 12:24:46;;;;;;;14.20;7.70;;;;;;;10.26;100.00;99372.86;110316;1261;22383;-80
2024/02/06 12:32:36;;;;;;;12.40;6.70;;;;;;;10.26;100.00;99368.89;109795;1268;22019;-78
2024/02/06 12:36:05;;;;;;;19.10;10.40;;;;;;;10.33;100.00;99366.77;109983;1263;22025;-78
2024/02/06 12:39:35;;;;;;;;;;;;;;;;;;;;;
2024/02/06 12:43:17;;;;;;;;;;;;;;;;;;;;;
2024/02/06 12:46:55;;;;;;;8.50;5.90;;;;;;;10.50;100.00;99347.27;110927;1257;21978;-78
2024/02/06 12:50:17;;;;;;;14.10;8.40;;;;;;;10.58;100.00;99348.27;111229;1257;22027;-80
2024/02/06 12:54:17;;;;;;;18.10;11.70;;;;;;;10.62;100.00;99344.20;110104;1265;22755;-78
2024/02/06 12:58:00;;;;;;;;;;;;;;;;;;;;;
2024/02/06 13:02:21;;;;;;;;;;;;;;;;;;;;;
2024/02/06 13:06:21;;;;;;;;;;;;;;;;;;;;;
2024/02/06 13:09:37;;;;;;;10.30;5.20;;;;;;;10.63;100.00;99314.05;110453;1259;24144;-77
2024/02/06 13:13:03;;;;;;;;;;;;;;;;;;;;;
2024/02/06 13:20:30;;;;;;;;;;;;;;;10.67;100.00;99307.77;110155;1265;22975;-79
2024/02/06 13:23:39;;;;;;;13.20;5.70;;;;;;;10.64;100.00;99307.55;111095;1258;22137;-80
2024/02/06 13:31:36;;;;;;;;;;;;;;;;;;;;;
2024/02/06 13:40:43;;;;;;;;;;;;;;;;;;;;;
2024/02/06 13:44:50;;;;;;;;;;;;;;;;;;;;;
2024/02/06 13:48:44;;;;;;;11.30;6.30;;;;;;;10.78;100.00;99295.64;107565;1297;22024;-80
2024/02/06 13:51:43;;;;;;;10.30;6.60;;;;;;;10.76;100.00;99295.61;106823;1302;22936;-78
2024/02/06 13:54:45;;;;;;;;;;;;;;;;;;;;;
2024/02/06 14:08:55;;;;;;;11.00;7.10;;;;;;;10.76;100.00;99279.40;110752;1258;547787;-80
2024/02/06 14:12:55;;;;;;;6.80;4.70;;;;;;;10.68;100.00;99266.66;107056;1250;6041530;-81
2024/02/06 14:17:30;;;;;;;;;;;;;;;;;;;;;
2024/02/06 14:22:03;;;;;;;9.30;4.80;;;;;;;10.60;100.00;99258.38;108864;1279;21998;-80
2024/02/06 14:29:05;;;;;;;7.10;4.00;;;;;;;10.55;100.00;99265.77;109028;1273;22000;-80
2024/02/06 14:32:08;;;;;;;9.20;5.00;;;;;;;10.56;100.00;99253.91;109279;1273;23057;-82
2024/02/06 14:35:33;;;;;;;6.10;3.10;;;;;;;10.58;100.00;99248.05;109429;1273;21999;-82
2024/02/06 14:58:29;;;;;;;;;;;;;;;;;;;;;
2024/02/06 15:07:51;;;;;;;9.10;6.10;;;;;;;11.13;100.00;99225.09;110044;1270;21980;-82
2024/02/06 15:11:37;;;;;;;;;;;;;;;;;;;;;
2024/02/06 15:15:30;;;;;;;5.70;5.10;;;;;;;10.78;100.00;99211.41;109115;1280;23782;-83
2024/02/06 15:18:59;;;;;;;8.20;5.70;;;;;;;10.71;100.00;99206.77;109310;1275;22013;-80
2024/02/06 15:22:30;;;;;;;;;;;;;;;;;;;;;
2024/02/06 15:26:10;;;;;;;7.60;5.00;;;;;;;10.61;100.00;99199.17;109508;1275;22007;-80
2024/02/06 15:29:26;;;;;;;;;;;;;;;;;;;;;
2024/02/06 15:32:54;;;;;;;12.60;6.90;;;;;;;10.54;100.00;99191.04;109171;1278;22009;-82
2024/02/06 15:35:46;;;;;;;;;;;;;;;;;;;;;
2024/02/06 15:38:16;;;;;;;19.80;11.60;;;;;;;10.54;100.00;99184.97;108858;1281;22041;-80
2024/02/06 15:41:46;;;;;;;20.10;12.60;;;;;;;10.56;100.00;99183.64;109004;1281;22446;-79
2024/02/06 15:45:39;;;;;;;15.10;9.00;;;;;;;10.52;100.00;99184.36;110128;1268;21979;-80
2024/02/06 15:49:22;;;;;;;14.80;9.90;;;;;;;10.50;100.00;99180.99;110670;1264;21953;-79
2024/02/06 15:52:42;;;;;;;12.20;7.30;;;;;;;10.47;100.00;99179.96;110335;1267;23850;-81
2024/02/06 15:55:28;;;;;;;11.90;7.90;;;;;;;10.47;100.00;99181.18;110421;1267;22010;-80
2024/02/06 15:58:15;;;;;;;11.70;7.70;;;;;;;10.37;100.00;99166.23;110353;1267;23799;-81
2024/02/06 16:01:25;;;;;;;10.50;6.40;;;;;;;10.46;100.00;99178.60;110363;1267;23638;-81
2024/02/06 16:04:57;;;;;;;15.90;11.60;;;;;;;10.37;100.00;99167.97;110969;1261;22837;-81
2024/02/06 16:08:37;;;;;;;11.50;7.20;;;;;;;10.47;100.00;99178.04;111115;1261;21984;-81
2024/02/06 16:12:05;;;;;;;;;;;;;;;;;;;;;
2024/02/06 16:15:29;;;;;;;20.80;16.20;;;;;;;10.43;100.00;99171.31;109643;1272;21934;-80
2024/02/06 16:18:48;;;;;;;;;;;;;;;;;;;;;
2024/02/06 16:21:59;;;;;;;19.40;8.50;;;;;;;10.39;100.00;99166.30;109852;1268;22482;-82
2024/02/06 16:24:49;;;;;;;;;;;;;;;10.25;100.00;99138.40;110044;1268;21993;-80
2024/02/06 16:27:46;;;;;;;6.60;5.50;;;;;;;10.26;100.00;99157.45;110546;1262;22095;-80
2024/02/06 16:30:22;;;;;;;10.40;5.50;;;;;;;10.28;100.00;99158.38;111101;1257;22222;-81
2024/02/06 16:34:41;;;;;;;;;;;;;;;;;;;;;
2024/02/06 16:38:02;;;;;;;14.60;6.50;;;;;;;10.29;100.00;99151.71;109582;1274;22020;-85
2024/02/06 16:42:49;;;;;;;;;;;;;;;;;;;;;
2024/02/06 16:46:05;;;;;;;11.30;5.50;;;;;;;10.28;100.00;99152.48;109538;1272;23870;-82
2024/02/06 16:49:49;;;;;;;13.20;7.20;;;;;;;10.33;100.00;99157.77;110258;1268;22018;-81
2024/02/06 16:58:24;;;;;;;;;;;;;;;;;;;;;
2024/02/06 17:29:14;;;;;;;;;;;;;;;;;;;;;
2024/02/06 17:33:19;;;;;;;;;;;;;;;;;;;;;
2024/02/06 17:38:06;;;;;;;;;;;;;;;;;;;;;
2024/02/06 17:47:04;;;;;;;29.80;23.70;;;;;;;10.93;100.00;99111.75;109733;1274;22026;-82
2024/02/06 17:51:05;;;;;;;7.80;5.80;;;;;;;10.86;100.00;99101.54;109183;1278;22011;-81
2024/02/06 17:54:09;;;;;;;7.90;5.90;;;;;;;10.83;100.00;99097.67;109170;1279;21986;-83
2024/02/06 17:58:26;;;;;;;;;;;;;;;;;;;;;
2024/02/06 18:01:24;;;;;;;10.90;8.00;;;;;;;10.75;100.00;99093.64;108760;1285;22176;-78
2024/02/06 18:04:52;;;;;;;;;;;;;;;;;;;;;
2024/02/06 18:34:08;;;;;;;;;;;;;;;;;;;;;
2024/02/06 18:37:27;;;;;;;9.60;6.00;;;;;;;10.70;100.00;99056.20;110424;1266;23620;-80
2024/02/06 18:45:19;;;;;;;;;;;;;;;;;;;;;
2024/02/06 19:09:04;;;;;;;5.60;3.90;;;;;;;11.19;100.00;98993.88;102519;1283;22054;-81
2024/02/06 19:13:05;;;;;;;;;;;;;;;;;;;;;
2024/02/06 19:16:22;;;;;;;7.00;5.00;;;;;;;10.83;100.00;99009.11;106866;1306;22044;-81
2024/02/06 19:25:19;;;;;;;;;;;;;;;;;;;;;
2024/02/06 19:30:06;;;;;;;5.80;3.80;;;;;;;10.68;100.00;99004.45;108691;1287;22022;-82
2024/02/06 19:40:04;;;;;;;;;;;;;;;;;;;;;
2024/02/06 19:44:11;;;;;;;5.80;3.10;;;;;;;10.50;100.00;98990.02;108264;1293;22524;-82
2024/02/06 19:47:51;;;;;;;11.50;6.60;;;;;;;10.49;100.00;98987.44;107167;1302;22027;-81
2024/02/06 19:51:44;;;;;;;;;;;;;;;;;;;;;
2024/02/06 20:07:07;;;;;;;;;;;;;;;;;;;;;
2024/02/06 20:11:10;;;;;;;5.70;4.30;;;;;;;11.49;100.00;98947.77;109554;1254;22651;-80
2024/02/06 20:15:06;;;;;;;;;;;;;;;;;;;;;
2024/02/06 20:18:23;;;;;;;16.40;12.50;;;;;;;10.92;100.00;98963.52;111577;1251;22286;-80
2024/02/06 20:22:15;;;;;;;7.40;4.30;;;;;;;10.75;100.00;98965.02;110379;1266;23064;-82
2024/02/06 20:25:43;;;;;;;4.90;3.40;;;;;;;10.69;100.00;98963.67;109924;1269;21993;-81
2024/02/06 20:33:34;;;;;;;;;;;;;;;;;;;;;
2024/02/06 20:37:02;;;;;;;;;;;;;;;;;;;;;
2024/02/06 20:40:18;;;;;;;6.00;4.00;;;;;;;10.54;100.00;98951.14;110015;1269;22000;-80
2024/02/06 20:43:28;;;;;;;5.80;3.60;;;;;;;10.43;100.00;98934.42;109760;1265;23701;-78
2024/02/06 20:46:18;;;;;;;;;;;;;;;;;;;;;
2024/02/06 20:49:07;;;;;;;;;;;;;;;;;;;;;
2024/02/06 20:52:04;;;;;;;6.00;3.10;;;;;;;10.54;100.00;98944.06;110220;1259;23630;-80
2024/02/06 20:55:29;;;;;;;11.30;4.80;;;;;;;10.52;100.00;98941.90;110883;1259;21995;-79
2024/02/06 20:58:37;;;;;;;8.00;4.60;;;;;;;10.54;100.00;98941.45;110570;1259;21991;-79
2024/02/06 21:02:34;;;;;;;7.00;4.10;;;;;;;10.54;100.00;98937.44;111057;1259;22002;-80
2024/02/06 21:05:46;;;;;;;7.70;4.10;;;;;;;10.44;100.00;98926.17;111416;1255;23740;-84